sensor_id;sensor_type;location;lat;lon;timestamp;P1;durP1;ratioP1;P2;durP2;ratioP2
74939;SDS011;63505;45.226;37.908;2023-02-20T00:02:00;10.35;;;4.75;;
74939;SDS011;63505;45.226;37.908;2023-02-20T00:04:26;10.25;;;4.18;;
74939;SDS011;63505;45.226;37.908;2023-02-20T00:06:51;9.27;;;4.78;;
74939;SDS011;63505;45.226;37.908;2023-02-20T00:09:17;11.00;;;4.43;;
74939;SDS011;63505;45.226;37.908;2023-02-20T00:11:43;11.10;;;4.43;;
74939;SDS011;63505;45.226;37.908;2023-02-20T00:14:09;7.97;;;3.80;;
74939;SDS011;63505;45.226;37.908;2023-02-20T00:16:35;8.20;;;4.22;;
74939;SDS011;63505;45.226;37.908;2023-02-20T00:19:01;9.13;;;4.35;;
74939;SDS011;63505;45.226;37.908;2023-02-20T00:21:26;8.10;;;4.68;;
74939;SDS011;63505;45.226;37.908;2023-02-20T00:23:52;10.27;;;5.07;;
74939;SDS011;63505;45.226;37.908;2023-02-20T00:26:18;8.93;;;3.97;;
74939;SDS011;63505;45.226;37.908;2023-02-20T00:28:44;10.00;;;4.05;;
74939;SDS011;63505;45.226;37.908;2023-02-20T00:31:12;6.93;;;4.15;;
74939;SDS011;63505;45.226;37.908;2023-02-20T00:33:40;7.40;;;3.78;;
74939;SDS011;63505;45.226;37.908;2023-02-20T00:36:07;9.25;;;4.00;;
74939;SDS011;63505;45.226;37.908;2023-02-20T00:38:47;9.95;;;3.95;;
74939;SDS011;63505;45.226;37.908;2023-02-20T00:41:13;8.40;;;4.82;;
74939;SDS011;63505;45.226;37.908;2023-02-20T00:43:40;7.88;;;4.03;;
74939;SDS011;63505;45.226;37.908;2023-02-20T00:46:09;8.65;;;4.05;;
74939;SDS011;63505;45.226;37.908;2023-02-20T00:48:36;5.47;;;3.35;;
74939;SDS011;63505;45.226;37.908;2023-02-20T00:51:31;7.25;;;3.30;;
74939;SDS011;63505;45.226;37.908;2023-02-20T00:53:58;9.45;;;4.57;;
74939;SDS011;63505;45.226;37.908;2023-02-20T00:56:24;11.10;;;4.72;;
74939;SDS011;63505;45.226;37.908;2023-02-20T00:58:50;11.10;;;5.22;;
74939;SDS011;63505;45.226;37.908;2023-02-20T01:01:16;11.32;;;4.95;;
74939;SDS011;63505;45.226;37.908;2023-02-20T01:03:43;8.90;;;4.53;;
74939;SDS011;63505;45.226;37.908;2023-02-20T01:06:09;7.55;;;4.65;;
74939;SDS011;63505;45.226;37.908;2023-02-20T01:08:35;8.13;;;4.25;;
74939;SDS011;63505;45.226;37.908;2023-02-20T01:11:01;6.55;;;4.15;;
74939;SDS011;63505;45.226;37.908;2023-02-20T01:13:28;8.38;;;3.42;;
74939;SDS011;63505;45.226;37.908;2023-02-20T01:15:54;6.72;;;3.75;;
74939;SDS011;63505;45.226;37.908;2023-02-20T01:18:20;7.20;;;4.13;;
74939;SDS011;63505;45.226;37.908;2023-02-20T01:20:45;10.05;;;5.43;;
74939;SDS011;63505;45.226;37.908;2023-02-20T01:23:11;10.07;;;4.13;;
74939;SDS011;63505;45.226;37.908;2023-02-20T01:25:37;6.72;;;3.65;;
74939;SDS011;63505;45.226;37.908;2023-02-20T01:28:04;8.23;;;3.90;;
74939;SDS011;63505;45.226;37.908;2023-02-20T01:30:30;7.72;;;4.10;;
74939;SDS011;63505;45.226;37.908;2023-02-20T01:32:55;4.07;;;2.67;;
74939;SDS011;63505;45.226;37.908;2023-02-20T01:35:21;9.05;;;4.93;;
74939;SDS011;63505;45.226;37.908;2023-02-20T01:37:48;8.93;;;4.45;;
74939;SDS011;63505;45.226;37.908;2023-02-20T01:40:15;9.15;;;4.70;;
74939;SDS011;63505;45.226;37.908;2023-02-20T01:42:46;13.57;;;5.10;;
74939;SDS011;63505;45.226;37.908;2023-02-20T01:45:38;10.02;;;5.43;;
74939;SDS011;63505;45.226;37.908;2023-02-20T01:48:03;8.50;;;4.75;;
74939;SDS011;63505;45.226;37.908;2023-02-20T01:52:56;7.78;;;4.07;;
74939;SDS011;63505;45.226;37.908;2023-02-20T01:55:28;10.30;;;4.40;;
74939;SDS011;63505;45.226;37.908;2023-02-20T01:58:43;14.13;;;6.18;;
74939;SDS011;63505;45.226;37.908;2023-02-20T02:00:55;9.65;;;4.95;;
74939;SDS011;63505;45.226;37.908;2023-02-20T02:03:25;10.93;;;5.05;;
74939;SDS011;63505;45.226;37.908;2023-02-20T02:05:59;7.82;;;4.25;;
74939;SDS011;63505;45.226;37.908;2023-02-20T02:08:27;10.10;;;5.35;;
74939;SDS011;63505;45.226;37.908;2023-02-20T02:13:33;6.55;;;4.32;;
74939;SDS011;63505;45.226;37.908;2023-02-20T02:19:03;10.23;;;5.85;;
74939;SDS011;63505;45.226;37.908;2023-02-20T02:22:08;12.65;;;5.65;;
74939;SDS011;63505;45.226;37.908;2023-02-20T02:37:01;21.92;;;6.28;;
74939;SDS011;63505;45.226;37.908;2023-02-20T02:39:49;10.40;;;6.10;;
74939;SDS011;63505;45.226;37.908;2023-02-20T02:50:36;8.75;;;4.53;;
74939;SDS011;63505;45.226;37.908;2023-02-20T02:53:08;5.85;;;3.45;;
74939;SDS011;63505;45.226;37.908;2023-02-20T02:55:34;8.82;;;4.50;;
74939;SDS011;63505;45.226;37.908;2023-02-20T02:58:01;5.55;;;3.65;;
74939;SDS011;63505;45.226;37.908;2023-02-20T03:00:37;8.25;;;5.43;;
74939;SDS011;63505;45.226;37.908;2023-02-20T03:03:08;4.72;;;2.42;;
74939;SDS011;63505;45.226;37.908;2023-02-20T03:05:54;11.00;;;5.07;;
74939;SDS011;63505;45.226;37.908;2023-02-20T03:08:42;7.43;;;3.97;;
74939;SDS011;63505;45.226;37.908;2023-02-20T03:11:13;7.32;;;3.50;;
74939;SDS011;63505;45.226;37.908;2023-02-20T03:13:46;6.07;;;2.50;;
74939;SDS011;63505;45.226;37.908;2023-02-20T03:19:28;3.28;;;1.92;;
74939;SDS011;63505;45.226;37.908;2023-02-20T03:21:58;7.68;;;2.45;;
74939;SDS011;63505;45.226;37.908;2023-02-20T03:24:26;4.40;;;2.33;;
74939;SDS011;63505;45.226;37.908;2023-02-20T03:26:56;2.72;;;1.67;;
74939;SDS011;63505;45.226;37.908;2023-02-20T03:29:26;8.77;;;2.65;;
74939;SDS011;63505;45.226;37.908;2023-02-20T03:32:04;7.55;;;3.42;;
74939;SDS011;63505;45.226;37.908;2023-02-20T03:34:52;6.10;;;2.88;;
74939;SDS011;63505;45.226;37.908;2023-02-20T03:40:24;4.30;;;2.17;;
74939;SDS011;63505;45.226;37.908;2023-02-20T03:43:13;4.00;;;1.95;;
74939;SDS011;63505;45.226;37.908;2023-02-20T03:45:49;3.35;;;1.80;;
74939;SDS011;63505;45.226;37.908;2023-02-20T03:51:12;3.20;;;1.67;;
74939;SDS011;63505;45.226;37.908;2023-02-20T03:54:01;3.20;;;1.75;;
74939;SDS011;63505;45.226;37.908;2023-02-20T03:56:32;4.47;;;1.95;;
74939;SDS011;63505;45.226;37.908;2023-02-20T03:59:09;4.25;;;2.13;;
74939;SDS011;63505;45.226;37.908;2023-02-20T04:01:41;4.32;;;1.67;;
74939;SDS011;63505;45.226;37.908;2023-02-20T04:04:11;2.60;;;1.38;;
74939;SDS011;63505;45.226;37.908;2023-02-20T04:06:41;6.93;;;2.80;;
74939;SDS011;63505;45.226;37.908;2023-02-20T04:09:13;13.40;;;5.32;;
74939;SDS011;63505;45.226;37.908;2023-02-20T04:11:47;8.27;;;5.03;;
74939;SDS011;63505;45.226;37.908;2023-02-20T04:14:16;6.05;;;2.13;;
74939;SDS011;63505;45.226;37.908;2023-02-20T04:16:50;10.48;;;3.55;;
74939;SDS011;63505;45.226;37.908;2023-02-20T04:19:20;3.42;;;1.90;;
74939;SDS011;63505;45.226;37.908;2023-02-20T04:21:51;10.52;;;3.13;;
74939;SDS011;63505;45.226;37.908;2023-02-20T04:24:22;7.43;;;2.72;;
74939;SDS011;63505;45.226;37.908;2023-02-20T04:27:00;5.57;;;2.40;;
74939;SDS011;63505;45.226;37.908;2023-02-20T04:29:27;6.65;;;2.85;;
74939;SDS011;63505;45.226;37.908;2023-02-20T04:31:55;4.70;;;2.55;;
74939;SDS011;63505;45.226;37.908;2023-02-20T04:34:25;3.78;;;2.08;;
74939;SDS011;63505;45.226;37.908;2023-02-20T04:36:54;5.03;;;2.30;;
74939;SDS011;63505;45.226;37.908;2023-02-20T04:39:46;1.98;;;1.23;;
74939;SDS011;63505;45.226;37.908;2023-02-20T04:42:14;4.45;;;1.98;;
74939;SDS011;63505;45.226;37.908;2023-02-20T04:44:41;5.47;;;2.00;;
74939;SDS011;63505;45.226;37.908;2023-02-20T04:47:11;6.25;;;2.30;;
74939;SDS011;63505;45.226;37.908;2023-02-20T04:49:40;7.50;;;2.58;;
74939;SDS011;63505;45.226;37.908;2023-02-20T04:52:08;2.38;;;1.42;;
74939;SDS011;63505;45.226;37.908;2023-02-20T04:54:35;5.22;;;2.22;;
74939;SDS011;63505;45.226;37.908;2023-02-20T04:57:02;3.33;;;1.50;;
74939;SDS011;63505;45.226;37.908;2023-02-20T04:59:28;6.80;;;1.90;;
74939;SDS011;63505;45.226;37.908;2023-02-20T05:01:54;4.68;;;2.25;;
74939;SDS011;63505;45.226;37.908;2023-02-20T05:04:21;4.00;;;1.75;;
74939;SDS011;63505;45.226;37.908;2023-02-20T05:06:50;4.60;;;2.40;;
74939;SDS011;63505;45.226;37.908;2023-02-20T05:09:18;5.20;;;1.83;;
74939;SDS011;63505;45.226;37.908;2023-02-20T05:11:44;6.13;;;2.30;;
74939;SDS011;63505;45.226;37.908;2023-02-20T05:14:10;6.03;;;2.60;;
74939;SDS011;63505;45.226;37.908;2023-02-20T05:16:37;7.32;;;3.05;;
74939;SDS011;63505;45.226;37.908;2023-02-20T05:19:03;7.57;;;3.00;;
74939;SDS011;63505;45.226;37.908;2023-02-20T05:21:29;7.03;;;3.13;;
74939;SDS011;63505;45.226;37.908;2023-02-20T05:24:14;7.63;;;2.53;;
74939;SDS011;63505;45.226;37.908;2023-02-20T05:26:40;8.82;;;3.45;;
74939;SDS011;63505;45.226;37.908;2023-02-20T05:29:06;8.23;;;3.67;;
74939;SDS011;63505;45.226;37.908;2023-02-20T05:31:34;9.52;;;3.08;;
74939;SDS011;63505;45.226;37.908;2023-02-20T05:34:00;6.55;;;3.45;;
74939;SDS011;63505;45.226;37.908;2023-02-20T05:36:26;6.68;;;2.33;;
74939;SDS011;63505;45.226;37.908;2023-02-20T05:38:52;7.68;;;2.70;;
74939;SDS011;63505;45.226;37.908;2023-02-20T05:41:18;11.00;;;3.70;;
74939;SDS011;63505;45.226;37.908;2023-02-20T05:43:44;7.47;;;3.75;;
74939;SDS011;63505;45.226;37.908;2023-02-20T05:46:10;5.90;;;2.80;;
74939;SDS011;63505;45.226;37.908;2023-02-20T05:48:36;14.15;;;3.45;;
74939;SDS011;63505;45.226;37.908;2023-02-20T05:51:02;8.35;;;3.97;;
74939;SDS011;63505;45.226;37.908;2023-02-20T05:53:29;9.02;;;3.97;;
74939;SDS011;63505;45.226;37.908;2023-02-20T05:55:55;12.45;;;4.88;;
74939;SDS011;63505;45.226;37.908;2023-02-20T05:58:22;16.13;;;5.85;;
74939;SDS011;63505;45.226;37.908;2023-02-20T06:00:48;10.45;;;5.10;;
74939;SDS011;63505;45.226;37.908;2023-02-20T06:03:14;7.65;;;4.20;;
74939;SDS011;63505;45.226;37.908;2023-02-20T06:05:41;11.05;;;4.88;;
74939;SDS011;63505;45.226;37.908;2023-02-20T06:08:07;11.25;;;5.07;;
74939;SDS011;63505;45.226;37.908;2023-02-20T06:10:33;10.88;;;4.90;;
74939;SDS011;63505;45.226;37.908;2023-02-20T06:12:59;10.88;;;5.18;;
74939;SDS011;63505;45.226;37.908;2023-02-20T06:15:25;6.90;;;3.47;;
74939;SDS011;63505;45.226;37.908;2023-02-20T06:17:51;13.10;;;6.38;;
74939;SDS011;63505;45.226;37.908;2023-02-20T06:20:17;11.27;;;5.75;;
74939;SDS011;63505;45.226;37.908;2023-02-20T06:22:43;5.57;;;3.45;;
74939;SDS011;63505;45.226;37.908;2023-02-20T06:25:09;12.30;;;6.32;;
74939;SDS011;63505;45.226;37.908;2023-02-20T06:27:37;16.77;;;7.18;;
74939;SDS011;63505;45.226;37.908;2023-02-20T06:30:03;10.88;;;5.40;;
74939;SDS011;63505;45.226;37.908;2023-02-20T06:32:30;15.23;;;6.90;;
74939;SDS011;63505;45.226;37.908;2023-02-20T06:34:55;11.75;;;6.55;;
74939;SDS011;63505;45.226;37.908;2023-02-20T06:37:21;16.58;;;5.38;;
74939;SDS011;63505;45.226;37.908;2023-02-20T06:39:47;11.90;;;6.47;;
74939;SDS011;63505;45.226;37.908;2023-02-20T06:42:14;19.13;;;10.70;;
74939;SDS011;63505;45.226;37.908;2023-02-20T06:44:40;20.40;;;11.27;;
74939;SDS011;63505;45.226;37.908;2023-02-20T06:47:06;17.85;;;11.02;;
74939;SDS011;63505;45.226;37.908;2023-02-20T06:49:34;19.45;;;12.27;;
74939;SDS011;63505;45.226;37.908;2023-02-20T06:52:02;16.05;;;8.73;;
74939;SDS011;63505;45.226;37.908;2023-02-20T06:54:28;15.05;;;8.32;;
74939;SDS011;63505;45.226;37.908;2023-02-20T06:56:54;19.30;;;11.57;;
74939;SDS011;63505;45.226;37.908;2023-02-20T06:59:21;22.80;;;14.68;;
74939;SDS011;63505;45.226;37.908;2023-02-20T07:01:48;14.60;;;8.75;;
74939;SDS011;63505;45.226;37.908;2023-02-20T07:04:15;15.98;;;11.10;;
74939;SDS011;63505;45.226;37.908;2023-02-20T07:06:46;22.83;;;10.23;;
74939;SDS011;63505;45.226;37.908;2023-02-20T13:45:38;6.63;;;2.58;;
74939;SDS011;63505;45.226;37.908;2023-02-20T13:59:12;6.93;;;1.95;;
74939;SDS011;63505;45.226;37.908;2023-02-20T14:04:26;2.67;;;1.58;;
74939;SDS011;63505;45.226;37.908;2023-02-20T14:06:53;8.25;;;1.73;;
74939;SDS011;63505;45.226;37.908;2023-02-20T14:09:21;4.03;;;2.22;;
74939;SDS011;63505;45.226;37.908;2023-02-20T14:12:01;2.28;;;1.25;;
74939;SDS011;63505;45.226;37.908;2023-02-20T14:14:36;3.95;;;1.52;;
74939;SDS011;63505;45.226;37.908;2023-02-20T14:17:12;2.40;;;1.50;;
74939;SDS011;63505;45.226;37.908;2023-02-20T14:19:41;4.45;;;1.15;;
74939;SDS011;63505;45.226;37.908;2023-02-20T14:22:25;3.92;;;1.63;;
74939;SDS011;63505;45.226;37.908;2023-02-20T14:27:44;5.38;;;2.30;;
74939;SDS011;63505;45.226;37.908;2023-02-20T14:30:15;7.55;;;2.28;;
74939;SDS011;63505;45.226;37.908;2023-02-20T14:32:47;2.25;;;1.13;;
74939;SDS011;63505;45.226;37.908;2023-02-20T14:35:30;3.78;;;2.85;;
74939;SDS011;63505;45.226;37.908;2023-02-20T14:41:09;6.22;;;2.03;;
74939;SDS011;63505;45.226;37.908;2023-02-20T14:43:42;2.40;;;1.45;;
74939;SDS011;63505;45.226;37.908;2023-02-20T14:46:17;6.03;;;1.50;;
74939;SDS011;63505;45.226;37.908;2023-02-20T14:48:47;3.03;;;1.67;;
74939;SDS011;63505;45.226;37.908;2023-02-20T14:51:14;2.40;;;1.23;;
74939;SDS011;63505;45.226;37.908;2023-02-20T14:53:41;4.53;;;1.50;;
74939;SDS011;63505;45.226;37.908;2023-02-20T14:56:09;5.30;;;2.45;;
74939;SDS011;63505;45.226;37.908;2023-02-20T14:58:36;3.38;;;1.70;;
74939;SDS011;63505;45.226;37.908;2023-02-20T15:01:19;3.63;;;2.30;;
74939;SDS011;63505;45.226;37.908;2023-02-20T15:04:05;2.80;;;1.60;;
74939;SDS011;63505;45.226;37.908;2023-02-20T15:06:38;5.85;;;2.38;;
74939;SDS011;63505;45.226;37.908;2023-02-20T15:09:06;10.93;;;4.82;;
74939;SDS011;63505;45.226;37.908;2023-02-20T15:11:33;14.07;;;3.58;;
74939;SDS011;63505;45.226;37.908;2023-02-20T15:14:02;3.67;;;2.33;;
74939;SDS011;63505;45.226;37.908;2023-02-20T15:16:30;8.35;;;2.67;;
74939;SDS011;63505;45.226;37.908;2023-02-20T15:18:59;3.63;;;1.88;;
74939;SDS011;63505;45.226;37.908;2023-02-20T15:21:41;5.53;;;2.05;;
74939;SDS011;63505;45.226;37.908;2023-02-20T15:24:11;5.20;;;2.20;;
74939;SDS011;63505;45.226;37.908;2023-02-20T15:26:52;3.05;;;1.33;;
74939;SDS011;63505;45.226;37.908;2023-02-20T15:29:20;5.40;;;1.33;;
74939;SDS011;63505;45.226;37.908;2023-02-20T15:32:32;8.65;;;2.30;;
74939;SDS011;63505;45.226;37.908;2023-02-20T15:34:41;3.90;;;2.05;;
74939;SDS011;63505;45.226;37.908;2023-02-20T15:37:18;6.40;;;2.95;;
74939;SDS011;63505;45.226;37.908;2023-02-20T15:39:47;6.93;;;2.75;;
74939;SDS011;63505;45.226;37.908;2023-02-20T15:42:14;5.85;;;2.28;;
74939;SDS011;63505;45.226;37.908;2023-02-20T15:44:44;5.25;;;2.13;;
74939;SDS011;63505;45.226;37.908;2023-02-20T15:47:09;5.68;;;2.55;;
74939;SDS011;63505;45.226;37.908;2023-02-20T15:49:35;3.42;;;2.42;;
74939;SDS011;63505;45.226;37.908;2023-02-20T15:52:02;6.25;;;2.58;;
74939;SDS011;63505;45.226;37.908;2023-02-20T15:54:30;2.92;;;1.60;;
74939;SDS011;63505;45.226;37.908;2023-02-20T15:56:56;7.85;;;3.03;;
74939;SDS011;63505;45.226;37.908;2023-02-20T15:59:22;5.50;;;2.78;;
74939;SDS011;63505;45.226;37.908;2023-02-20T16:01:49;7.85;;;3.35;;
74939;SDS011;63505;45.226;37.908;2023-02-20T16:04:15;9.23;;;2.33;;
74939;SDS011;63505;45.226;37.908;2023-02-20T16:06:42;8.52;;;2.80;;
74939;SDS011;63505;45.226;37.908;2023-02-20T16:09:09;3.17;;;2.60;;
74939;SDS011;63505;45.226;37.908;2023-02-20T16:11:43;3.92;;;2.33;;
74939;SDS011;63505;45.226;37.908;2023-02-20T16:14:14;3.33;;;1.90;;
74939;SDS011;63505;45.226;37.908;2023-02-20T16:16:42;4.22;;;2.90;;
74939;SDS011;63505;45.226;37.908;2023-02-20T16:19:14;2.75;;;1.50;;
74939;SDS011;63505;45.226;37.908;2023-02-20T16:21:45;2.95;;;1.45;;
74939;SDS011;63505;45.226;37.908;2023-02-20T16:24:12;7.35;;;2.83;;
74939;SDS011;63505;45.226;37.908;2023-02-20T16:26:39;2.40;;;0.85;;
74939;SDS011;63505;45.226;37.908;2023-02-20T16:29:11;3.30;;;1.45;;
74939;SDS011;63505;45.226;37.908;2023-02-20T16:34:20;5.60;;;3.70;;
74939;SDS011;63505;45.226;37.908;2023-02-20T16:36:48;3.50;;;2.10;;
74939;SDS011;63505;45.226;37.908;2023-02-20T16:39:15;7.13;;;2.03;;
74939;SDS011;63505;45.226;37.908;2023-02-20T16:41:41;1.92;;;1.15;;
74939;SDS011;63505;45.226;37.908;2023-02-20T16:44:21;3.05;;;1.77;;
74939;SDS011;63505;45.226;37.908;2023-02-20T16:46:51;2.97;;;1.45;;
74939;SDS011;63505;45.226;37.908;2023-02-20T16:49:17;9.18;;;1.35;;
74939;SDS011;63505;45.226;37.908;2023-02-20T16:51:43;2.05;;;1.10;;
74939;SDS011;63505;45.226;37.908;2023-02-20T16:54:25;0.85;;;0.60;;
74939;SDS011;63505;45.226;37.908;2023-02-20T16:56:54;2.80;;;1.55;;
74939;SDS011;63505;45.226;37.908;2023-02-20T16:59:20;3.92;;;1.83;;
74939;SDS011;63505;45.226;37.908;2023-02-20T17:01:47;4.95;;;2.83;;
74939;SDS011;63505;45.226;37.908;2023-02-20T17:04:16;2.30;;;1.67;;
74939;SDS011;63505;45.226;37.908;2023-02-20T17:06:44;4.15;;;1.35;;
74939;SDS011;63505;45.226;37.908;2023-02-20T17:09:11;4.28;;;2.65;;
74939;SDS011;63505;45.226;37.908;2023-02-20T17:11:37;2.33;;;1.38;;
74939;SDS011;63505;45.226;37.908;2023-02-20T17:14:05;3.60;;;0.85;;
74939;SDS011;63505;45.226;37.908;2023-02-20T17:16:31;3.10;;;1.52;;
74939;SDS011;63505;45.226;37.908;2023-02-20T17:18:58;1.85;;;0.93;;
74939;SDS011;63505;45.226;37.908;2023-02-20T17:21:23;1.83;;;0.98;;
74939;SDS011;63505;45.226;37.908;2023-02-20T17:23:50;2.10;;;1.38;;
74939;SDS011;63505;45.226;37.908;2023-02-20T17:26:16;7.88;;;1.35;;
74939;SDS011;63505;45.226;37.908;2023-02-20T17:28:42;4.28;;;1.67;;
74939;SDS011;63505;45.226;37.908;2023-02-20T17:31:08;1.67;;;1.17;;
74939;SDS011;63505;45.226;37.908;2023-02-20T17:33:33;3.65;;;1.38;;
74939;SDS011;63505;45.226;37.908;2023-02-20T17:35:59;14.15;;;2.72;;
74939;SDS011;63505;45.226;37.908;2023-02-20T17:38:25;1.35;;;0.77;;
74939;SDS011;63505;45.226;37.908;2023-02-20T17:40:51;0.88;;;0.60;;
74939;SDS011;63505;45.226;37.908;2023-02-20T17:43:17;1.73;;;0.95;;
74939;SDS011;63505;45.226;37.908;2023-02-20T17:45:43;2.25;;;1.20;;
74939;SDS011;63505;45.226;37.908;2023-02-20T17:48:10;1.05;;;0.70;;
74939;SDS011;63505;45.226;37.908;2023-02-20T17:50:36;1.67;;;0.90;;
74939;SDS011;63505;45.226;37.908;2023-02-20T17:53:02;1.55;;;0.93;;
74939;SDS011;63505;45.226;37.908;2023-02-20T17:55:28;3.63;;;1.50;;
74939;SDS011;63505;45.226;37.908;2023-02-20T17:57:54;1.75;;;0.93;;
74939;SDS011;63505;45.226;37.908;2023-02-20T18:00:20;1.52;;;1.08;;
74939;SDS011;63505;45.226;37.908;2023-02-20T18:02:47;2.70;;;0.93;;
74939;SDS011;63505;45.226;37.908;2023-02-20T18:05:12;4.65;;;1.70;;
74939;SDS011;63505;45.226;37.908;2023-02-20T18:07:38;1.70;;;1.02;;
74939;SDS011;63505;45.226;37.908;2023-02-20T18:10:05;2.22;;;0.90;;
74939;SDS011;63505;45.226;37.908;2023-02-20T18:12:31;1.75;;;0.85;;
74939;SDS011;63505;45.226;37.908;2023-02-20T18:14:57;1.48;;;0.70;;
74939;SDS011;63505;45.226;37.908;2023-02-20T18:17:23;2.65;;;0.93;;
74939;SDS011;63505;45.226;37.908;2023-02-20T18:19:49;1.73;;;1.30;;
74939;SDS011;63505;45.226;37.908;2023-02-20T18:22:15;3.25;;;1.88;;
74939;SDS011;63505;45.226;37.908;2023-02-20T18:24:41;2.45;;;1.55;;
74939;SDS011;63505;45.226;37.908;2023-02-20T18:27:07;7.05;;;2.20;;
74939;SDS011;63505;45.226;37.908;2023-02-20T18:29:36;6.07;;;2.85;;
74939;SDS011;63505;45.226;37.908;2023-02-20T18:32:02;7.78;;;1.80;;
74939;SDS011;63505;45.226;37.908;2023-02-20T18:34:28;2.08;;;0.98;;
74939;SDS011;63505;45.226;37.908;2023-02-20T18:36:55;2.97;;;1.15;;
74939;SDS011;63505;45.226;37.908;2023-02-20T18:39:21;1.13;;;0.57;;
74939;SDS011;63505;45.226;37.908;2023-02-20T18:41:49;3.85;;;1.25;;
74939;SDS011;63505;45.226;37.908;2023-02-20T18:44:17;4.38;;;1.92;;
74939;SDS011;63505;45.226;37.908;2023-02-20T18:46:44;1.00;;;0.65;;
74939;SDS011;63505;45.226;37.908;2023-02-20T18:49:10;1.00;;;0.90;;
74939;SDS011;63505;45.226;37.908;2023-02-20T18:51:38;2.90;;;1.40;;
74939;SDS011;63505;45.226;37.908;2023-02-20T18:54:06;2.88;;;1.17;;
74939;SDS011;63505;45.226;37.908;2023-02-20T18:56:33;1.55;;;0.80;;
74939;SDS011;63505;45.226;37.908;2023-02-20T18:59:03;3.55;;;1.67;;
74939;SDS011;63505;45.226;37.908;2023-02-20T19:01:29;3.35;;;1.80;;
74939;SDS011;63505;45.226;37.908;2023-02-20T19:03:57;3.33;;;3.03;;
74939;SDS011;63505;45.226;37.908;2023-02-20T19:06:28;3.80;;;1.05;;
74939;SDS011;63505;45.226;37.908;2023-02-20T19:08:59;8.02;;;1.30;;
74939;SDS011;63505;45.226;37.908;2023-02-20T19:11:25;2.80;;;1.20;;
74939;SDS011;63505;45.226;37.908;2023-02-20T19:13:52;1.95;;;1.23;;
74939;SDS011;63505;45.226;37.908;2023-02-20T19:16:18;5.97;;;1.75;;
74939;SDS011;63505;45.226;37.908;2023-02-20T19:18:44;2.75;;;1.13;;
74939;SDS011;63505;45.226;37.908;2023-02-20T19:21:10;1.63;;;0.93;;
74939;SDS011;63505;45.226;37.908;2023-02-20T19:23:37;1.90;;;1.15;;
74939;SDS011;63505;45.226;37.908;2023-02-20T19:26:04;2.17;;;1.48;;
74939;SDS011;63505;45.226;37.908;2023-02-20T19:28:30;3.42;;;1.67;;
74939;SDS011;63505;45.226;37.908;2023-02-20T19:30:57;2.05;;;1.15;;
74939;SDS011;63505;45.226;37.908;2023-02-20T19:33:24;1.25;;;0.98;;
74939;SDS011;63505;45.226;37.908;2023-02-20T19:35:51;1.05;;;0.82;;
74939;SDS011;63505;45.226;37.908;2023-02-20T19:38:17;1.58;;;0.95;;
74939;SDS011;63505;45.226;37.908;2023-02-20T19:40:43;4.65;;;1.00;;
74939;SDS011;63505;45.226;37.908;2023-02-20T19:43:10;4.22;;;1.50;;
74939;SDS011;63505;45.226;37.908;2023-02-20T19:45:35;3.17;;;0.65;;
74939;SDS011;63505;45.226;37.908;2023-02-20T19:48:01;2.20;;;0.98;;
74939;SDS011;63505;45.226;37.908;2023-02-20T19:50:28;2.17;;;1.77;;
74939;SDS011;63505;45.226;37.908;2023-02-20T19:52:58;2.03;;;1.10;;
74939;SDS011;63505;45.226;37.908;2023-02-20T19:55:25;1.70;;;0.93;;
74939;SDS011;63505;45.226;37.908;2023-02-20T19:57:51;1.50;;;0.98;;
74939;SDS011;63505;45.226;37.908;2023-02-20T20:00:18;3.05;;;0.90;;
74939;SDS011;63505;45.226;37.908;2023-02-20T20:02:48;2.47;;;1.25;;
74939;SDS011;63505;45.226;37.908;2023-02-20T20:05:16;1.70;;;1.40;;
74939;SDS011;63505;45.226;37.908;2023-02-20T20:07:43;6.65;;;1.67;;
74939;SDS011;63505;45.226;37.908;2023-02-20T20:10:10;3.08;;;1.63;;
74939;SDS011;63505;45.226;37.908;2023-02-20T20:12:36;8.27;;;2.33;;
74939;SDS011;63505;45.226;37.908;2023-02-20T20:15:18;3.25;;;1.23;;
74939;SDS011;63505;45.226;37.908;2023-02-20T20:17:47;6.82;;;2.30;;
74939;SDS011;63505;45.226;37.908;2023-02-20T20:20:15;4.70;;;1.85;;
74939;SDS011;63505;45.226;37.908;2023-02-20T20:22:42;1.40;;;0.90;;
74939;SDS011;63505;45.226;37.908;2023-02-20T20:25:09;7.70;;;1.10;;
74939;SDS011;63505;45.226;37.908;2023-02-20T20:27:38;2.35;;;1.30;;
74939;SDS011;63505;45.226;37.908;2023-02-20T20:30:04;1.92;;;1.00;;
74939;SDS011;63505;45.226;37.908;2023-02-20T20:32:32;2.65;;;1.13;;
74939;SDS011;63505;45.226;37.908;2023-02-20T20:34:58;2.17;;;1.25;;
74939;SDS011;63505;45.226;37.908;2023-02-20T20:37:24;4.05;;;1.45;;
74939;SDS011;63505;45.226;37.908;2023-02-20T20:39:52;2.28;;;1.45;;
74939;SDS011;63505;45.226;37.908;2023-02-20T20:42:21;3.50;;;1.83;;
74939;SDS011;63505;45.226;37.908;2023-02-20T20:44:49;4.80;;;2.20;;
74939;SDS011;63505;45.226;37.908;2023-02-20T20:47:21;4.70;;;1.67;;
74939;SDS011;63505;45.226;37.908;2023-02-20T20:49:47;3.30;;;1.73;;
74939;SDS011;63505;45.226;37.908;2023-02-20T20:52:14;3.40;;;2.15;;
74939;SDS011;63505;45.226;37.908;2023-02-20T20:54:40;2.08;;;1.50;;
74939;SDS011;63505;45.226;37.908;2023-02-20T20:57:06;2.15;;;1.27;;
74939;SDS011;63505;45.226;37.908;2023-02-20T20:59:32;5.57;;;1.58;;
74939;SDS011;63505;45.226;37.908;2023-02-20T21:01:58;3.40;;;1.58;;
74939;SDS011;63505;45.226;37.908;2023-02-20T21:04:24;1.50;;;0.90;;
74939;SDS011;63505;45.226;37.908;2023-02-20T21:06:51;4.47;;;2.10;;
74939;SDS011;63505;45.226;37.908;2023-02-20T21:09:17;4.38;;;1.83;;
74939;SDS011;63505;45.226;37.908;2023-02-20T21:11:43;2.67;;;1.30;;
74939;SDS011;63505;45.226;37.908;2023-02-20T21:14:09;2.70;;;1.45;;
74939;SDS011;63505;45.226;37.908;2023-02-20T21:16:35;0.98;;;0.70;;
74939;SDS011;63505;45.226;37.908;2023-02-20T21:19:02;2.88;;;1.92;;
74939;SDS011;63505;45.226;37.908;2023-02-20T21:21:29;2.80;;;1.65;;
74939;SDS011;63505;45.226;37.908;2023-02-20T21:23:55;3.63;;;1.95;;
74939;SDS011;63505;45.226;37.908;2023-02-20T21:26:22;3.22;;;1.75;;
74939;SDS011;63505;45.226;37.908;2023-02-20T21:28:48;4.55;;;1.40;;
74939;SDS011;63505;45.226;37.908;2023-02-20T21:31:15;4.70;;;2.47;;
74939;SDS011;63505;45.226;37.908;2023-02-20T21:33:41;2.80;;;1.35;;
74939;SDS011;63505;45.226;37.908;2023-02-20T21:36:07;2.63;;;1.50;;
74939;SDS011;63505;45.226;37.908;2023-02-20T21:38:33;4.10;;;1.17;;
74939;SDS011;63505;45.226;37.908;2023-02-20T21:40:59;7.47;;;1.08;;
74939;SDS011;63505;45.226;37.908;2023-02-20T21:43:26;3.83;;;1.77;;
74939;SDS011;63505;45.226;37.908;2023-02-20T21:46:11;3.55;;;1.25;;
74939;SDS011;63505;45.226;37.908;2023-02-20T21:48:36;5.03;;;1.92;;
74939;SDS011;63505;45.226;37.908;2023-02-20T21:51:02;3.58;;;1.80;;
74939;SDS011;63505;45.226;37.908;2023-02-20T21:53:28;3.38;;;1.80;;
74939;SDS011;63505;45.226;37.908;2023-02-20T21:55:54;3.22;;;1.38;;
74939;SDS011;63505;45.226;37.908;2023-02-20T21:58:20;4.75;;;3.38;;
74939;SDS011;63505;45.226;37.908;2023-02-20T22:01:06;5.40;;;2.22;;
74939;SDS011;63505;45.226;37.908;2023-02-20T22:03:32;3.53;;;1.45;;
74939;SDS011;63505;45.226;37.908;2023-02-20T22:05:58;2.13;;;1.48;;
74939;SDS011;63505;45.226;37.908;2023-02-20T22:08:23;5.50;;;2.83;;
74939;SDS011;63505;45.226;37.908;2023-02-20T22:11:08;5.07;;;2.42;;
74939;SDS011;63505;45.226;37.908;2023-02-20T22:13:52;2.70;;;1.27;;
74939;SDS011;63505;45.226;37.908;2023-02-20T22:16:37;5.00;;;2.60;;
74939;SDS011;63505;45.226;37.908;2023-02-20T22:19:21;3.75;;;1.88;;
74939;SDS011;63505;45.226;37.908;2023-02-20T22:22:06;4.93;;;2.58;;